sensor_id;sensor_type;location;lat;lon;timestamp;pressure;altitude;pressure_sealevel;temperature;humidity
70843;BME280;58469;52.312;16.970;2024-03-08T00:01:45;101796.00;;;-2.34;84.71
70843;BME280;58469;52.312;16.970;2024-03-08T00:04:45;101792.94;;;-2.39;85.51
70843;BME280;58469;52.312;16.970;2024-03-08T00:07:46;101787.81;;;-2.39;84.42
70843;BME280;58469;52.312;16.970;2024-03-08T00:10:46;101785.97;;;-2.37;83.46
70843;BME280;58469;52.312;16.970;2024-03-08T00:13:47;101796.00;;;-2.34;85.07
70843;BME280;58469;52.312;16.970;2024-03-08T00:16:47;101794.28;;;-2.33;84.55
70843;BME280;58469;52.312;16.970;2024-03-08T00:19:49;101791.09;;;-2.37;83.93
70843;BME280;58469;52.312;16.970;2024-03-08T00:22:50;101786.25;;;-2.42;85.93
70843;BME280;58469;52.312;16.970;2024-03-08T00:25:51;101788.81;;;-2.42;86.29
70843;BME280;58469;52.312;16.970;2024-03-08T00:28:51;101794.03;;;-2.43;85.77
70843;BME280;58469;52.312;16.970;2024-03-08T00:31:52;101792.63;;;-2.47;85.78
70843;BME280;58469;52.312;16.970;2024-03-08T00:34:52;101784.63;;;-2.55;86.19
70843;BME280;58469;52.312;16.970;2024-03-08T00:37:53;101782.16;;;-2.69;87.32
70843;BME280;58469;52.312;16.970;2024-03-08T00:40:56;101792.19;;;-2.66;88.80
70843;BME280;58469;52.312;16.970;2024-03-08T00:43:56;101790.53;;;-2.67;87.79
70843;BME280;58469;52.312;16.970;2024-03-08T00:46:57;101785.81;;;-2.73;88.00
70843;BME280;58469;52.312;16.970;2024-03-08T00:49:59;101784.00;;;-2.71;89.59
70843;BME280;58469;52.312;16.970;2024-03-08T00:52:59;101791.47;;;-2.68;90.50
70843;BME280;58469;52.312;16.970;2024-03-08T00:56:00;101788.19;;;-2.70;90.88
70843;BME280;58469;52.312;16.970;2024-03-08T00:59:00;101779.88;;;-2.74;91.21
70843;BME280;58469;52.312;16.970;2024-03-08T01:02:01;101781.13;;;-2.67;92.05
70843;BME280;58469;52.312;16.970;2024-03-08T01:05:01;101779.19;;;-2.63;92.48
70843;BME280;58469;52.312;16.970;2024-03-08T01:08:02;101784.41;;;-2.65;90.20
70843;BME280;58469;52.312;16.970;2024-03-08T01:11:03;101785.63;;;-2.70;90.09
70843;BME280;58469;52.312;16.970;2024-03-08T01:14:05;101774.75;;;-2.74;90.82
70843;BME280;58469;52.312;16.970;2024-03-08T01:17:05;101775.16;;;-2.80;90.89
70843;BME280;58469;52.312;16.970;2024-03-08T01:20:06;101771.78;;;-2.80;91.29
70843;BME280;58469;52.312;16.970;2024-03-08T01:23:07;101771.47;;;-2.76;91.64
70843;BME280;58469;52.312;16.970;2024-03-08T01:26:07;101763.91;;;-2.77;92.57
70843;BME280;58469;52.312;16.970;2024-03-08T01:29:08;101761.34;;;-2.77;91.97
70843;BME280;58469;52.312;16.970;2024-03-08T01:32:08;101762.38;;;-2.80;90.28
70843;BME280;58469;52.312;16.970;2024-03-08T01:35:08;101762.56;;;-2.83;88.71
70843;BME280;58469;52.312;16.970;2024-03-08T01:38:09;101758.56;;;-2.87;90.40
70843;BME280;58469;52.312;16.970;2024-03-08T01:41:10;101757.31;;;-2.94;91.28
70843;BME280;58469;52.312;16.970;2024-03-08T01:44:10;101760.00;;;-2.95;91.61
70843;BME280;58469;52.312;16.970;2024-03-08T01:47:11;101761.41;;;-2.91;93.04
70843;BME280;58469;52.312;16.970;2024-03-08T01:50:11;101752.00;;;-2.91;93.86
70843;BME280;58469;52.312;16.970;2024-03-08T01:53:12;101753.03;;;-2.93;93.20
70843;BME280;58469;52.312;16.970;2024-03-08T01:56:15;101749.16;;;-2.86;89.43
70843;BME280;58469;52.312;16.970;2024-03-08T01:59:18;101748.75;;;-2.80;90.21
70843;BME280;58469;52.312;16.970;2024-03-08T02:02:20;101741.00;;;-2.79;89.58
70843;BME280;58469;52.312;16.970;2024-03-08T02:05:21;101739.25;;;-2.78;89.63
70843;BME280;58469;52.312;16.970;2024-03-08T02:08:23;101737.53;;;-2.78;90.01
70843;BME280;58469;52.312;16.970;2024-03-08T02:11:24;101735.03;;;-2.79;90.70
70843;BME280;58469;52.312;16.970;2024-03-08T02:14:24;101728.41;;;-2.82;91.94
70843;BME280;58469;52.312;16.970;2024-03-08T02:17:25;101727.59;;;-2.82;91.73
70843;BME280;58469;52.312;16.970;2024-03-08T02:20:29;101721.94;;;-2.87;92.48
70843;BME280;58469;52.312;16.970;2024-03-08T02:23:29;101720.59;;;-2.93;91.01
70843;BME280;58469;52.312;16.970;2024-03-08T02:26:30;101720.91;;;-2.97;89.63
70843;BME280;58469;52.312;16.970;2024-03-08T02:29:31;101722.13;;;-3.03;89.69
70843;BME280;58469;52.312;16.970;2024-03-08T02:32:32;101718.31;;;-3.10;90.79
70843;BME280;58469;52.312;16.970;2024-03-08T02:35:33;101719.34;;;-3.12;90.69
70843;BME280;58469;52.312;16.970;2024-03-08T02:38:33;101720.44;;;-3.16;92.07
70843;BME280;58469;52.312;16.970;2024-03-08T02:41:33;101717.25;;;-3.20;92.08
70843;BME280;58469;52.312;16.970;2024-03-08T02:44:34;101718.19;;;-3.21;93.32
70843;BME280;58469;52.312;16.970;2024-03-08T02:47:34;101725.75;;;-3.19;93.83
70843;BME280;58469;52.312;16.970;2024-03-08T02:50:35;101724.41;;;-3.25;93.56
70843;BME280;58469;52.312;16.970;2024-03-08T02:53:36;101725.34;;;-3.26;93.75
70843;BME280;58469;52.312;16.970;2024-03-08T02:56:37;101723.78;;;-3.28;93.91
70843;BME280;58469;52.312;16.970;2024-03-08T02:59:38;101717.16;;;-3.31;93.65
70843;BME280;58469;52.312;16.970;2024-03-08T03:02:40;101724.19;;;-3.34;93.85
70843;BME280;58469;52.312;16.970;2024-03-08T03:05:40;101716.06;;;-3.41;93.52
70843;BME280;58469;52.312;16.970;2024-03-08T03:08:44;101717.09;;;-3.43;93.32
70843;BME280;58469;52.312;16.970;2024-03-08T03:11:45;101712.34;;;-3.49;93.24
70843;BME280;58469;52.312;16.970;2024-03-08T03:14:46;101711.72;;;-3.53;93.65
70843;BME280;58469;52.312;16.970;2024-03-08T03:17:50;101710.91;;;-3.53;93.67
70843;BME280;58469;52.312;16.970;2024-03-08T03:20:51;101722.97;;;-3.55;94.24
70843;BME280;58469;52.312;16.970;2024-03-08T03:23:51;101713.47;;;-3.53;93.60
70843;BME280;58469;52.312;16.970;2024-03-08T03:26:52;101718.47;;;-3.52;92.82
70843;BME280;58469;52.312;16.970;2024-03-08T03:29:55;101717.66;;;-3.52;93.19
70843;BME280;58469;52.312;16.970;2024-03-08T03:32:55;101718.38;;;-3.50;94.05
70843;BME280;58469;52.312;16.970;2024-03-08T03:35:59;101716.16;;;-3.42;94.88
70843;BME280;58469;52.312;16.970;2024-03-08T03:38:59;101712.31;;;-3.35;93.75
70843;BME280;58469;52.312;16.970;2024-03-08T03:42:16;101713.97;;;-3.34;92.90
70843;BME280;58469;52.312;16.970;2024-03-08T03:45:16;101701.66;;;-3.42;91.66
70843;BME280;58469;52.312;16.970;2024-03-08T03:48:20;101717.50;;;-3.37;91.80
70843;BME280;58469;52.312;16.970;2024-03-08T03:51:20;101712.69;;;-3.41;92.73
70843;BME280;58469;52.312;16.970;2024-03-08T03:54:21;101708.22;;;-3.38;90.91
70843;BME280;58469;52.312;16.970;2024-03-08T03:57:22;101707.56;;;-3.27;90.14
70843;BME280;58469;52.312;16.970;2024-03-08T04:00:23;101703.88;;;-3.23;88.65
70843;BME280;58469;52.312;16.970;2024-03-08T04:03:23;101705.53;;;-3.22;87.73
70843;BME280;58469;52.312;16.970;2024-03-08T04:06:24;101699.06;;;-3.28;87.49
70843;BME280;58469;52.312;16.970;2024-03-08T04:09:24;101695.03;;;-3.32;87.64
70843;BME280;58469;52.312;16.970;2024-03-08T04:12:24;101706.38;;;-3.36;88.89
70843;BME280;58469;52.312;16.970;2024-03-08T04:15:25;101702.66;;;-3.44;89.48
70843;BME280;58469;52.312;16.970;2024-03-08T04:18:25;101704.16;;;-3.54;89.31
70843;BME280;58469;52.312;16.970;2024-03-08T04:21:26;101692.88;;;-3.65;90.19
70843;BME280;58469;52.312;16.970;2024-03-08T04:24:27;101697.53;;;-3.71;91.13
70843;BME280;58469;52.312;16.970;2024-03-08T04:27:27;101687.78;;;-3.79;91.35
70843;BME280;58469;52.312;16.970;2024-03-08T04:30:28;101696.56;;;-3.83;91.41
70843;BME280;58469;52.312;16.970;2024-03-08T04:33:28;101695.22;;;-3.88;91.37
70843;BME280;58469;52.312;16.970;2024-03-08T04:36:29;101695.50;;;-3.93;91.59
70843;BME280;58469;52.312;16.970;2024-03-08T04:39:29;101689.66;;;-3.95;91.87
70843;BME280;58469;52.312;16.970;2024-03-08T04:42:30;101694.03;;;-3.97;92.00
70843;BME280;58469;52.312;16.970;2024-03-08T04:45:33;101691.69;;;-4.00;91.73
70843;BME280;58469;52.312;16.970;2024-03-08T04:48:33;101691.94;;;-4.04;91.26
70843;BME280;58469;52.312;16.970;2024-03-08T04:51:36;101686.13;;;-4.06;92.11
70843;BME280;58469;52.312;16.970;2024-03-08T04:54:37;101683.28;;;-4.02;93.19
70843;BME280;58469;52.312;16.970;2024-03-08T04:57:38;101686.59;;;-4.00;92.91
70843;BME280;58469;52.312;16.970;2024-03-08T05:00:38;101683.84;;;-3.97;93.30
70843;BME280;58469;52.312;16.970;2024-03-08T05:03:38;101686.09;;;-3.92;94.49
70843;BME280;58469;52.312;16.970;2024-03-08T05:06:39;101690.94;;;-3.88;94.64
70843;BME280;58469;52.312;16.970;2024-03-08T05:09:39;101699.38;;;-3.87;93.82
70843;BME280;58469;52.312;16.970;2024-03-08T05:12:41;101701.31;;;-3.91;92.64
70843;BME280;58469;52.312;16.970;2024-03-08T05:15:41;101689.88;;;-3.98;91.66
70843;BME280;58469;52.312;16.970;2024-03-08T05:18:42;101693.69;;;-4.05;91.20
70843;BME280;58469;52.312;16.970;2024-03-08T05:21:45;101693.78;;;-4.06;90.26
70843;BME280;58469;52.312;16.970;2024-03-08T05:24:46;101689.13;;;-4.14;89.97
70843;BME280;58469;52.312;16.970;2024-03-08T05:27:46;101690.59;;;-4.10;89.83
70843;BME280;58469;52.312;16.970;2024-03-08T05:30:47;101693.84;;;-4.08;89.29
70843;BME280;58469;52.312;16.970;2024-03-08T05:33:48;101692.88;;;-4.05;89.11
70843;BME280;58469;52.312;16.970;2024-03-08T05:36:49;101694.22;;;-4.00;88.77
70843;BME280;58469;52.312;16.970;2024-03-08T05:39:54;101699.38;;;-3.87;89.10
70843;BME280;58469;52.312;16.970;2024-03-08T05:42:54;101700.63;;;-3.66;89.27
70843;BME280;58469;52.312;16.970;2024-03-08T05:45:55;101698.09;;;-3.39;89.25
70843;BME280;58469;52.312;16.970;2024-03-08T05:48:56;101692.03;;;-3.12;88.80
70843;BME280;58469;52.312;16.970;2024-03-08T05:51:56;101698.00;;;-2.86;88.00
70843;BME280;58469;52.312;16.970;2024-03-08T05:54:56;101696.22;;;-2.59;87.51
70843;BME280;58469;52.312;16.970;2024-03-08T05:57:58;101688.41;;;-2.32;87.13
70843;BME280;58469;52.312;16.970;2024-03-08T06:00:58;101696.66;;;-2.04;87.08
70843;BME280;58469;52.312;16.970;2024-03-08T06:03:58;101689.16;;;-1.82;85.78
70843;BME280;58469;52.312;16.970;2024-03-08T06:06:59;101695.53;;;-1.64;85.17
70843;BME280;58469;52.312;16.970;2024-03-08T06:09:59;101688.41;;;-1.48;84.60
70843;BME280;58469;52.312;16.970;2024-03-08T06:13:00;101698.53;;;-1.23;84.18
70843;BME280;58469;52.312;16.970;2024-03-08T06:16:02;101693.97;;;-0.95;83.85
70843;BME280;58469;52.312;16.970;2024-03-08T06:19:05;101692.03;;;-0.81;83.18
70843;BME280;58469;52.312;16.970;2024-03-08T06:22:06;101699.38;;;-0.76;82.66
70843;BME280;58469;52.312;16.970;2024-03-08T06:25:10;101697.06;;;-0.68;82.11
70843;BME280;58469;52.312;16.970;2024-03-08T06:28:14;101684.25;;;-0.57;82.61
70843;BME280;58469;52.312;16.970;2024-03-08T06:31:14;101693.13;;;-0.39;82.89
70843;BME280;58469;52.312;16.970;2024-03-08T06:34:15;101691.50;;;-0.18;82.65
70843;BME280;58469;52.312;16.970;2024-03-08T06:37:15;101688.22;;;0.02;82.41
70843;BME280;58469;52.312;16.970;2024-03-08T06:40:16;101688.91;;;0.15;82.46
70843;BME280;58469;52.312;16.970;2024-03-08T06:43:16;101691.63;;;0.14;81.96
70843;BME280;58469;52.312;16.970;2024-03-08T06:46:18;101689.16;;;0.01;81.87
70843;BME280;58469;52.312;16.970;2024-03-08T06:49:20;101691.59;;;-0.09;82.14
70843;BME280;58469;52.312;16.970;2024-03-08T06:52:21;101682.66;;;-0.14;82.62
70843;BME280;58469;52.312;16.970;2024-03-08T06:55:22;101688.00;;;-0.17;83.04
70843;BME280;58469;52.312;16.970;2024-03-08T06:58:22;101697.00;;;-0.23;83.37
70843;BME280;58469;52.312;16.970;2024-03-08T07:01:23;101689.19;;;-0.21;83.29
70843;BME280;58469;52.312;16.970;2024-03-08T07:04:23;101691.63;;;-0.20;83.44
70843;BME280;58469;52.312;16.970;2024-03-08T07:07:27;101682.19;;;-0.19;83.76
70843;BME280;58469;52.312;16.970;2024-03-08T07:10:27;101692.56;;;-0.10;83.93
70843;BME280;58469;52.312;16.970;2024-03-08T07:13:29;101688.69;;;-0.04;84.05
70843;BME280;58469;52.312;16.970;2024-03-08T07:16:29;101688.00;;;0.05;84.12
70843;BME280;58469;52.312;16.970;2024-03-08T07:19:30;101697.09;;;0.09;84.33
70843;BME280;58469;52.312;16.970;2024-03-08T07:22:30;101694.84;;;0.16;84.19
70843;BME280;58469;52.312;16.970;2024-03-08T07:25:31;101691.94;;;0.20;84.19
70843;BME280;58469;52.312;16.970;2024-03-08T07:28:32;101688.09;;;0.26;84.41
70843;BME280;58469;52.312;16.970;2024-03-08T07:31:32;101688.16;;;0.35;84.36
70843;BME280;58469;52.312;16.970;2024-03-08T07:34:51;101690.25;;;0.41;84.53
70843;BME280;58469;52.312;16.970;2024-03-08T07:37:51;101693.63;;;0.53;84.25
70843;BME280;58469;52.312;16.970;2024-03-08T07:40:55;101680.00;;;0.62;84.16
70843;BME280;58469;52.312;16.970;2024-03-08T07:43:57;101677.16;;;0.76;83.66
70843;BME280;58469;52.312;16.970;2024-03-08T07:46:58;101675.38;;;0.87;83.96
70843;BME280;58469;52.312;16.970;2024-03-08T07:49:58;101668.41;;;0.99;83.28
70843;BME280;58469;52.312;16.970;2024-03-08T07:53:00;101670.53;;;1.14;83.34
70843;BME280;58469;52.312;16.970;2024-03-08T07:56:01;101678.19;;;1.26;82.92
70843;BME280;58469;52.312;16.970;2024-03-08T07:59:02;101672.97;;;1.37;82.80
70843;BME280;58469;52.312;16.970;2024-03-08T08:02:04;101657.56;;;1.46;82.58
70843;BME280;58469;52.312;16.970;2024-03-08T08:05:04;101669.69;;;1.65;82.71
70843;BME280;58469;52.312;16.970;2024-03-08T08:08:07;101669.34;;;1.79;82.32
70843;BME280;58469;52.312;16.970;2024-03-08T08:11:08;101679.31;;;1.93;81.65
70843;BME280;58469;52.312;16.970;2024-03-08T08:14:09;101670.81;;;2.02;81.64
70843;BME280;58469;52.312;16.970;2024-03-08T08:17:10;101679.66;;;2.18;81.59
70843;BME280;58469;52.312;16.970;2024-03-08T08:20:11;101672.78;;;2.38;81.50
70843;BME280;58469;52.312;16.970;2024-03-08T08:23:12;101667.47;;;2.49;79.82
70843;BME280;58469;52.312;16.970;2024-03-08T08:26:12;101659.34;;;2.54;78.04
70843;BME280;58469;52.312;16.970;2024-03-08T08:29:12;101653.25;;;2.55;77.58
70843;BME280;58469;52.312;16.970;2024-03-08T08:32:13;101659.75;;;2.68;75.94
70843;BME280;58469;52.312;16.970;2024-03-08T08:35:14;101664.38;;;2.74;76.18
70843;BME280;58469;52.312;16.970;2024-03-08T08:38:14;101667.34;;;2.89;76.52
70843;BME280;58469;52.312;16.970;2024-03-08T08:41:14;101663.28;;;2.96;74.79
70843;BME280;58469;52.312;16.970;2024-03-08T08:44:16;101662.72;;;3.02;75.21
70843;BME280;58469;52.312;16.970;2024-03-08T08:47:16;101662.84;;;3.00;74.46
70843;BME280;58469;52.312;16.970;2024-03-08T08:50:18;101660.94;;;3.12;74.47
70843;BME280;58469;52.312;16.970;2024-03-08T08:53:25;101654.94;;;3.21;73.36
70843;BME280;58469;52.312;16.970;2024-03-08T08:56:26;101649.50;;;3.24;73.56
70843;BME280;58469;52.312;16.970;2024-03-08T08:59:26;101641.56;;;3.35;72.35
70843;BME280;58469;52.312;16.970;2024-03-08T09:02:26;101648.59;;;3.52;72.88
70843;BME280;58469;52.312;16.970;2024-03-08T09:05:27;101646.50;;;3.65;71.52
70843;BME280;58469;52.312;16.970;2024-03-08T09:08:27;101637.22;;;3.72;70.91
70843;BME280;58469;52.312;16.970;2024-03-08T09:11:28;101637.72;;;3.76;69.93
70843;BME280;58469;52.312;16.970;2024-03-08T09:14:30;101635.00;;;3.77;69.66
70843;BME280;58469;52.312;16.970;2024-03-08T09:17:30;101632.00;;;3.82;69.29
70843;BME280;58469;52.312;16.970;2024-03-08T09:20:30;101625.69;;;3.94;68.34
70843;BME280;58469;52.312;16.970;2024-03-08T09:23:32;101626.81;;;4.09;68.07
70843;BME280;58469;52.312;16.970;2024-03-08T09:26:32;101624.91;;;4.11;68.64
70843;BME280;58469;52.312;16.970;2024-03-08T09:29:33;101614.06;;;4.25;69.04
70843;BME280;58469;52.312;16.970;2024-03-08T09:32:33;101620.84;;;4.43;68.57
70843;BME280;58469;52.312;16.970;2024-03-08T09:35:34;101613.66;;;4.55;67.60
70843;BME280;58469;52.312;16.970;2024-03-08T09:38:34;101610.78;;;4.58;66.69
70843;BME280;58469;52.312;16.970;2024-03-08T09:41:35;101613.59;;;4.64;66.37
70843;BME280;58469;52.312;16.970;2024-03-08T09:44:36;101611.72;;;4.74;66.21
70843;BME280;58469;52.312;16.970;2024-03-08T09:47:39;101598.84;;;4.82;66.17
70843;BME280;58469;52.312;16.970;2024-03-08T09:50:40;101604.53;;;4.86;64.84
70843;BME280;58469;52.312;16.970;2024-03-08T09:53:44;101598.47;;;4.77;63.05
70843;BME280;58469;52.312;16.970;2024-03-08T09:56:46;101595.44;;;4.82;63.35
70843;BME280;58469;52.312;16.970;2024-03-08T09:59:47;101593.34;;;4.86;61.74
70843;BME280;58469;52.312;16.970;2024-03-08T10:02:50;101598.31;;;4.79;62.13
70843;BME280;58469;52.312;16.970;2024-03-08T10:05:53;101590.41;;;4.80;61.93
70843;BME280;58469;52.312;16.970;2024-03-08T10:08:58;101581.22;;;4.86;61.41
70843;BME280;58469;52.312;16.970;2024-03-08T10:11:59;101577.41;;;4.98;62.69
70843;BME280;58469;52.312;16.970;2024-03-08T10:14:59;101574.94;;;5.14;62.50
70843;BME280;58469;52.312;16.970;2024-03-08T10:18:00;101574.47;;;5.19;60.17
70843;BME280;58469;52.312;16.970;2024-03-08T10:21:07;101573.91;;;5.07;59.95
70843;BME280;58469;52.312;16.970;2024-03-08T10:24:10;101565.13;;;5.00;59.39
70843;BME280;58469;52.312;16.970;2024-03-08T10:27:11;101574.50;;;5.01;59.87
70843;BME280;58469;52.312;16.970;2024-03-08T10:30:15;101571.31;;;5.07;58.93
70843;BME280;58469;52.312;16.970;2024-03-08T10:33:20;101575.53;;;5.08;59.87
70843;BME280;58469;52.312;16.970;2024-03-08T10:36:20;101578.63;;;5.12;60.11
70843;BME280;58469;52.312;16.970;2024-03-08T10:39:24;101568.78;;;5.15;59.10
70843;BME280;58469;52.312;16.970;2024-03-08T10:42:28;101566.22;;;5.23;59.56
70843;BME280;58469;52.312;16.970;2024-03-08T10:45:35;101566.47;;;5.38;59.36
70843;BME280;58469;52.312;16.970;2024-03-08T10:48:43;101557.94;;;5.53;59.44
70843;BME280;58469;52.312;16.970;2024-03-08T10:51:44;101556.19;;;5.62;58.17
70843;BME280;58469;52.312;16.970;2024-03-08T10:54:47;101560.06;;;5.66;58.43
70843;BME280;58469;52.312;16.970;2024-03-08T10:57:48;101555.91;;;5.81;58.19
70843;BME280;58469;52.312;16.970;2024-03-08T11:00:49;101558.38;;;5.82;58.58
70843;BME280;58469;52.312;16.970;2024-03-08T11:03:53;101537.09;;;5.79;57.75
70843;BME280;58469;52.312;16.970;2024-03-08T11:07:02;101547.19;;;5.90;58.57
70843;BME280;58469;52.312;16.970;2024-03-08T11:10:07;101541.22;;;5.89;57.16
70843;BME280;58469;52.312;16.970;2024-03-08T11:13:38;101531.97;;;5.87;58.18
70843;BME280;58469;52.312;16.970;2024-03-08T11:16:43;101526.78;;;5.95;58.41
70843;BME280;58469;52.312;16.970;2024-03-08T11:19:47;101531.66;;;6.14;57.60
70843;BME280;58469;52.312;16.970;2024-03-08T11:22:52;101529.88;;;6.23;58.20
70843;BME280;58469;52.312;16.970;2024-03-08T11:25:53;101519.66;;;6.29;57.23
70843;BME280;58469;52.312;16.970;2024-03-08T11:28:53;101528.25;;;6.30;58.19
70843;BME280;58469;52.312;16.970;2024-03-08T11:32:14;101517.06;;;6.37;57.90
70843;BME280;58469;52.312;16.970;2024-03-08T11:35:19;101516.25;;;6.53;57.39
70843;BME280;58469;52.312;16.970;2024-03-08T11:38:20;101513.31;;;6.56;57.45
70843;BME280;58469;52.312;16.970;2024-03-08T11:41:22;101510.38;;;6.59;56.40
70843;BME280;58469;52.312;16.970;2024-03-08T11:44:26;101505.50;;;6.64;56.16
70843;BME280;58469;52.312;16.970;2024-03-08T11:47:28;101501.63;;;6.52;54.68
70843;BME280;58469;52.312;16.970;2024-03-08T11:50:29;101494.53;;;6.46;55.60
70843;BME280;58469;52.312;16.970;2024-03-08T11:53:29;101496.97;;;6.39;55.54
70843;BME280;58469;52.312;16.970;2024-03-08T11:56:30;101485.44;;;6.34;55.97
70843;BME280;58469;52.312;16.970;2024-03-08T11:59:32;101490.47;;;6.27;55.47
70843;BME280;58469;52.312;16.970;2024-03-08T12:02:33;101491.44;;;6.42;55.76
70843;BME280;58469;52.312;16.970;2024-03-08T12:05:38;101491.72;;;6.55;55.76
70843;BME280;58469;52.312;16.970;2024-03-08T12:08:38;101480.03;;;6.67;56.36
70843;BME280;58469;52.312;16.970;2024-03-08T12:11:39;101471.09;;;6.70;54.51
70843;BME280;58469;52.312;16.970;2024-03-08T12:14:43;101474.19;;;6.65;52.60
70843;BME280;58469;52.312;16.970;2024-03-08T12:17:45;101467.53;;;6.63;55.02
70843;BME280;58469;52.312;16.970;2024-03-08T12:20:48;101469.94;;;6.80;55.47
70843;BME280;58469;52.312;16.970;2024-03-08T12:24:06;101463.59;;;6.83;53.24
70843;BME280;58469;52.312;16.970;2024-03-08T12:27:26;101461.97;;;6.74;53.80
70843;BME280;58469;52.312;16.970;2024-03-08T12:30:30;101452.38;;;6.82;54.77
70843;BME280;58469;52.312;16.970;2024-03-08T12:33:33;101454.16;;;6.90;54.35
70843;BME280;58469;52.312;16.970;2024-03-08T12:36:35;101453.78;;;7.01;53.78
70843;BME280;58469;52.312;16.970;2024-03-08T12:39:36;101451.63;;;7.04;54.24
70843;BME280;58469;52.312;16.970;2024-03-08T12:42:37;101440.81;;;7.01;54.22
70843;BME280;58469;52.312;16.970;2024-03-08T12:45:39;101444.06;;;6.95;53.58
70843;BME280;58469;52.312;16.970;2024-03-08T12:48:39;101443.94;;;6.88;54.25
70843;BME280;58469;52.312;16.970;2024-03-08T12:51:40;101438.59;;;6.82;53.32
70843;BME280;58469;52.312;16.970;2024-03-08T12:54:41;101437.13;;;6.79;53.24
70843;BME280;58469;52.312;16.970;2024-03-08T12:57:42;101434.22;;;6.74;54.40
70843;BME280;58469;52.312;16.970;2024-03-08T13:00:43;101426.94;;;6.70;54.51
70843;BME280;58469;52.312;16.970;2024-03-08T13:03:43;101420.72;;;6.87;54.59
70843;BME280;58469;52.312;16.970;2024-03-08T13:06:44;101418.25;;;6.93;54.49
70843;BME280;58469;52.312;16.970;2024-03-08T13:09:46;101415.19;;;6.90;53.87
70843;BME280;58469;52.312;16.970;2024-03-08T13:12:47;101413.09;;;6.85;54.12
70843;BME280;58469;52.312;16.970;2024-03-08T13:15:47;101413.56;;;6.89;54.84
70843;BME280;58469;52.312;16.970;2024-03-08T13:18:49;101407.69;;;6.95;54.73
70843;BME280;58469;52.312;16.970;2024-03-08T13:21:49;101415.13;;;6.98;54.09
70843;BME280;58469;52.312;16.970;2024-03-08T13:24:49;101399.59;;;6.90;55.00
70843;BME280;58469;52.312;16.970;2024-03-08T13:27:50;101400.72;;;6.95;54.17
70843;BME280;58469;52.312;16.970;2024-03-08T13:30:50;101400.25;;;6.92;53.85
70843;BME280;58469;52.312;16.970;2024-03-08T13:33:50;101400.25;;;6.92;54.36
70843;BME280;58469;52.312;16.970;2024-03-08T13:36:57;101390.97;;;6.97;54.40
70843;BME280;58469;52.312;16.970;2024-03-08T13:40:00;101384.31;;;6.95;54.70
70843;BME280;58469;52.312;16.970;2024-03-08T13:43:00;101380.56;;;6.97;54.42
70843;BME280;58469;52.312;16.970;2024-03-08T13:46:02;101383.47;;;6.94;54.31
70843;BME280;58469;52.312;16.970;2024-03-08T13:49:06;101375.38;;;6.97;53.48
70843;BME280;58469;52.312;16.970;2024-03-08T13:52:08;101367.88;;;7.02;53.94
70843;BME280;58469;52.312;16.970;2024-03-08T13:55:08;101364.41;;;7.10;54.22
70843;BME280;58469;52.312;16.970;2024-03-08T13:58:09;101345.56;;;7.08;54.19
70843;BME280;58469;52.312;16.970;2024-03-08T14:01:09;101352.34;;;7.17;53.64
70843;BME280;58469;52.312;16.970;2024-03-08T14:04:12;101345.00;;;7.21;53.20
70843;BME280;58469;52.312;16.970;2024-03-08T14:07:12;101342.69;;;7.26;53.40
70843;BME280;58469;52.312;16.970;2024-03-08T14:10:13;101335.47;;;7.36;53.46
70843;BME280;58469;52.312;16.970;2024-03-08T14:13:13;101334.41;;;7.30;53.44
70843;BME280;58469;52.312;16.970;2024-03-08T14:16:16;101332.84;;;7.21;52.59
70843;BME280;58469;52.312;16.970;2024-03-08T14:19:17;101334.84;;;7.11;52.66
70843;BME280;58469;52.312;16.970;2024-03-08T14:22:17;101337.28;;;7.12;53.55
70843;BME280;58469;52.312;16.970;2024-03-08T14:25:17;101331.78;;;7.07;53.24
70843;BME280;58469;52.312;16.970;2024-03-08T14:28:18;101331.97;;;7.06;54.60
70843;BME280;58469;52.312;16.970;2024-03-08T14:31:19;101334.38;;;7.07;54.10
70843;BME280;58469;52.312;16.970;2024-03-08T14:34:20;101328.38;;;7.07;54.24
70843;BME280;58469;52.312;16.970;2024-03-08T14:37:20;101322.53;;;7.05;54.09
70843;BME280;58469;52.312;16.970;2024-03-08T14:40:25;101328.25;;;7.00;53.77
70843;BME280;58469;52.312;16.970;2024-03-08T14:43:26;101316.56;;;6.96;53.81
70843;BME280;58469;52.312;16.970;2024-03-08T14:46:26;101320.97;;;6.96;53.71
70843;BME280;58469;52.312;16.970;2024-03-08T14:49:27;101314.28;;;7.01;53.73
70843;BME280;58469;52.312;16.970;2024-03-08T14:52:29;101310.88;;;7.01;53.91
70843;BME280;58469;52.312;16.970;2024-03-08T14:55:29;101306.13;;;7.04;55.17
70843;BME280;58469;52.312;16.970;2024-03-08T14:58:30;101314.09;;;7.03;54.38
70843;BME280;58469;52.312;16.970;2024-03-08T15:01:30;101311.38;;;6.96;54.46
70843;BME280;58469;52.312;16.970;2024-03-08T15:04:33;101305.22;;;6.97;55.44
70843;BME280;58469;52.312;16.970;2024-03-08T15:07:35;101305.38;;;6.96;54.67
70843;BME280;58469;52.312;16.970;2024-03-08T15:10:36;101303.13;;;6.93;54.84
70843;BME280;58469;52.312;16.970;2024-03-08T15:13:37;101293.06;;;6.90;55.00
70843;BME280;58469;52.312;16.970;2024-03-08T15:16:41;101293.06;;;6.90;55.26
70843;BME280;58469;52.312;16.970;2024-03-08T15:19:42;101298.16;;;6.83;55.15
70843;BME280;58469;52.312;16.970;2024-03-08T15:22:46;101289.06;;;6.79;55.44
70843;BME280;58469;52.312;16.970;2024-03-08T15:25:47;101291.84;;;6.78;55.01
70843;BME280;58469;52.312;16.970;2024-03-08T15:28:49;101284.22;;;6.76;54.92
70843;BME280;58469;52.312;16.970;2024-03-08T15:31:52;101277.56;;;6.74;55.22
70843;BME280;58469;52.312;16.970;2024-03-08T15:34:54;101279.72;;;6.70;54.51
70843;BME280;58469;52.312;16.970;2024-03-08T15:37:54;101266.78;;;6.62;54.30
70843;BME280;58469;52.312;16.970;2024-03-08T15:40:57;101266.00;;;6.54;54.52
70843;BME280;58469;52.312;16.970;2024-03-08T15:43:58;101271.84;;;6.56;54.57